Time;durP1;ratioP1;P1;durP2;ratioP2;P2;SDS_P1;SDS_P2;PMS_P1;PMS_P2;Temp;Humidity;BMP_temperature;BMP_pressure;BME280_temperature;BME280_humidity;BME280_pressure;Samples;Min_cycle;Max_cycle;Signal;HPM_P1;HPM_P2
2022/05/11 00:01:49;;;;;;;23.93;22.43;;;;;;;;;;5055406;28;20419;-86
2022/05/11 00:04:18;;;;;;;24.23;22.60;;;;;;;;;;5054729;28;20438;-87
2022/05/11 00:06:45;;;;;;;24.90;23.37;;;;;;;;;;5054997;28;20460;-86
2022/05/11 00:09:13;;;;;;;24.50;23.10;;;;;;;;;;5054987;28;20490;-87
2022/05/11 00:11:42;;;;;;;25.13;23.57;;;;;;;;;;5054721;28;20760;-87
2022/05/11 00:14:09;;;;;;;24.47;22.97;;;;;;;;;;5054331;28;20483;-86
2022/05/11 00:16:38;;;;;;;25.13;23.33;;;;;;;;;;5054536;28;20451;-86
2022/05/11 00:19:06;;;;;;;24.10;22.60;;;;;;;;;;5054112;28;20435;-86
2022/05/11 00:21:33;;;;;;;25.00;23.30;;;;;;;;;;5054227;28;20491;-86
2022/05/11 00:24:01;;;;;;;24.07;22.70;;;;;;;;;;5054417;28;20418;-86
2022/05/11 00:26:28;;;;;;;25.67;23.83;;;;;;;;;;5054488;28;20439;-86
2022/05/11 00:28:56;;;;;;;25.13;23.43;;;;;;;;;;5054290;28;20441;-86
2022/05/11 00:31:23;;;;;;;24.57;23.07;;;;;;;;;;5054785;28;20428;-86
2022/05/11 00:33:52;;;;;;;24.20;22.80;;;;;;;;;;5054083;28;20439;-86
2022/05/11 00:36:20;;;;;;;25.90;24.20;;;;;;;;;;5053459;28;20450;-86
2022/05/11 00:38:47;;;;;;;25.90;24.10;;;;;;;;;;5053781;28;20466;-87
2022/05/11 00:41:14;;;;;;;25.40;23.80;;;;;;;;;;5054098;28;20454;-86
2022/05/11 00:43:43;;;;;;;25.50;23.77;;;;;;;;;;5053821;28;20463;-86
2022/05/11 00:46:17;;;;;;;24.63;23.13;;;;;;;;;;5054208;28;20417;-86
2022/05/11 00:51:29;;;;;;;26.17;24.43;;;;;;;;;;5020346;28;20448;-86
2022/05/11 00:53:56;;;;;;;25.57;23.67;;;;;;;;;;5053571;28;20410;-86
2022/05/11 00:56:25;;;;;;;24.00;22.60;;;;;;;;;;5053475;28;20941;-86
2022/05/11 00:58:54;;;;;;;25.03;23.33;;;;;;;;;;5020003;28;20447;-87
2022/05/11 01:01:21;;;;;;;24.70;23.20;;;;;;;;;;5054063;28;20807;-86
2022/05/11 01:03:52;;;;;;;23.00;21.40;;;;;;;;;;5053646;28;20475;-86
2022/05/11 01:06:20;;;;;;;25.77;23.63;;;;;;;;;;5053723;28;20791;-85
2022/05/11 01:08:49;;;;;;;25.23;23.73;;;;;;;;;;5054012;28;20802;-86
2022/05/11 01:11:17;;;;;;;23.03;21.63;;;;;;;;;;5053757;28;20435;-86
2022/05/11 01:13:45;;;;;;;23.57;22.07;;;;;;;;;;5053629;28;20414;-86
2022/05/11 01:16:12;;;;;;;24.60;22.90;;;;;;;;;;5053415;28;20462;-86
2022/05/11 01:18:40;;;;;;;25.03;23.53;;;;;;;;;;5053420;28;20466;-85
2022/05/11 01:21:08;;;;;;;24.37;22.80;;;;;;;;;;5053746;28;20442;-86
2022/05/11 01:23:40;;;;;;;23.37;21.83;;;;;;;;;;5053986;28;20849;-85
2022/05/11 01:26:09;;;;;;;24.63;22.70;;;;;;;;;;5053578;28;20490;-86
2022/05/11 01:28:41;;;;;;;24.10;22.63;;;;;;;;;;5052462;28;20439;-85
2022/05/11 01:31:10;;;;;;;24.53;23.03;;;;;;;;;;5051821;28;20450;-86
2022/05/11 01:33:38;;;;;;;25.13;23.53;;;;;;;;;;5053261;28;20951;-86
2022/05/11 01:36:11;;;;;;;23.50;22.10;;;;;;;;;;5052850;28;20574;-86
2022/05/11 01:38:41;;;;;;;24.60;22.80;;;;;;;;;;5052090;28;20458;-86
2022/05/11 01:41:10;;;;;;;24.37;22.70;;;;;;;;;;5053608;28;20434;-86
2022/05/11 01:43:40;;;;;;;24.47;22.97;;;;;;;;;;5053420;28;20432;-86
2022/05/11 01:46:08;;;;;;;24.83;23.33;;;;;;;;;;5053141;28;20435;-86
2022/05/11 01:48:36;;;;;;;24.70;23.10;;;;;;;;;;5054711;28;20480;-86
2022/05/11 01:51:03;;;;;;;24.87;23.27;;;;;;;;;;5056935;28;20578;-86
2022/05/11 01:53:31;;;;;;;24.73;23.20;;;;;;;;;;5057291;28;20413;-86
2022/05/11 01:55:58;;;;;;;24.93;23.30;;;;;;;;;;5056629;28;20465;-86
2022/05/11 01:58:27;;;;;;;24.57;22.97;;;;;;;;;;5056899;28;20436;-87
2022/05/11 02:00:55;;;;;;;25.20;23.60;;;;;;;;;;5057194;28;20417;-86
2022/05/11 02:03:22;;;;;;;25.50;23.60;;;;;;;;;;5056865;28;20474;-86
2022/05/11 02:08:36;;;;;;;25.23;23.37;;;;;;;;;;5056955;28;20932;-85
2022/05/11 02:11:04;;;;;;;23.53;22.13;;;;;;;;;;5056716;28;20451;-85
2022/05/11 02:13:33;;;;;;;25.67;23.70;;;;;;;;;;5057058;28;20435;-86
2022/05/11 02:16:01;;;;;;;25.93;23.93;;;;;;;;;;5057120;28;20529;-86
2022/05/11 02:18:28;;;;;;;24.67;23.17;;;;;;;;;;5056534;28;20979;-86
2022/05/11 02:20:55;;;;;;;26.30;24.50;;;;;;;;;;5057070;28;20431;-86
2022/05/11 02:23:23;;;;;;;25.57;23.90;;;;;;;;;;5056539;28;20447;-86
2022/05/11 02:25:51;;;;;;;24.90;23.30;;;;;;;;;;5056290;28;20421;-86
2022/05/11 02:28:21;;;;;;;23.10;21.70;;;;;;;;;;5056291;28;20875;-85
2022/05/11 02:30:51;;;;;;;25.90;24.00;;;;;;;;;;5056137;28;20489;-86
2022/05/11 02:33:18;;;;;;;23.10;21.70;;;;;;;;;;5056364;28;20453;-87
2022/05/11 02:35:46;;;;;;;25.37;23.80;;;;;;;;;;5056588;28;20927;-86
2022/05/11 02:38:14;;;;;;;24.07;22.60;;;;;;;;;;5055971;28;20501;-86
2022/05/11 02:40:42;;;;;;;27.03;24.57;;;;;;;;;;5056167;28;20411;-87
2022/05/11 02:43:11;;;;;;;24.00;22.50;;;;;;;;;;5056346;28;20410;-86
2022/05/11 02:45:39;;;;;;;24.23;22.70;;;;;;;;;;5056426;28;20414;-86
2022/05/11 02:48:09;;;;;;;23.57;22.07;;;;;;;;;;5056152;28;20478;-86
2022/05/11 02:50:38;;;;;;;24.17;22.67;;;;;;;;;;5055803;28;20453;-86
2022/05/11 02:53:07;;;;;;;24.77;23.00;;;;;;;;;;5055910;28;20439;-87
2022/05/11 02:55:35;;;;;;;24.90;23.30;;;;;;;;;;5055742;28;20490;-86
2022/05/11 02:58:02;;;;;;;24.07;22.57;;;;;;;;;;5056111;28;20496;-86
2022/05/11 03:00:31;;;;;;;24.90;23.30;;;;;;;;;;5054767;28;20417;-86
2022/05/11 03:03:00;;;;;;;25.30;23.60;;;;;;;;;;5055677;28;20454;-86
2022/05/11 03:05:29;;;;;;;25.53;23.80;;;;;;;;;;5055767;28;20441;-86
2022/05/11 03:07:57;;;;;;;24.87;23.27;;;;;;;;;;5055771;28;20451;-86
2022/05/11 03:10:24;;;;;;;24.90;23.30;;;;;;;;;;5055526;28;20435;-86
2022/05/11 03:12:54;;;;;;;25.83;24.20;;;;;;;;;;5055965;28;20494;-86
2022/05/11 03:15:22;;;;;;;24.87;23.17;;;;;;;;;;5055759;28;20492;-86
2022/05/11 03:17:49;;;;;;;25.00;23.30;;;;;;;;;;5055512;28;20907;-86
2022/05/11 03:20:18;;;;;;;24.13;22.63;;;;;;;;;;5055890;28;20406;-86
2022/05/11 03:22:47;;;;;;;25.33;23.73;;;;;;;;;;5055519;28;20942;-85
2022/05/11 03:25:14;;;;;;;24.90;23.30;;;;;;;;;;5055307;28;20475;-86
2022/05/11 03:27:41;;;;;;;23.83;22.43;;;;;;;;;;5055429;28;20830;-86
2022/05/11 03:30:09;;;;;;;24.70;23.13;;;;;;;;;;5055173;28;20447;-86
2022/05/11 03:35:21;;;;;;;24.20;22.70;;;;;;;;;;5054929;28;20445;-85
2022/05/11 03:37:50;;;;;;;26.27;24.60;;;;;;;;;;5054956;28;20454;-86
2022/05/11 03:40:18;;;;;;;26.10;24.20;;;;;;;;;;5055126;28;20457;-86
2022/05/11 03:42:45;;;;;;;25.80;23.90;;;;;;;;;;5055262;28;20904;-86
2022/05/11 03:45:14;;;;;;;24.30;22.70;;;;;;;;;;5055000;28;20467;-86
2022/05/11 03:47:42;;;;;;;27.53;25.43;;;;;;;;;;5053906;28;20484;-86
2022/05/11 03:50:10;;;;;;;26.33;24.47;;;;;;;;;;5054920;28;20499;-86
2022/05/11 03:52:37;;;;;;;26.40;24.50;;;;;;;;;;5053288;28;20974;-84
2022/05/11 03:55:08;;;;;;;25.60;23.80;;;;;;;;;;5054256;28;20513;-85
2022/05/11 03:57:37;;;;;;;26.53;24.43;;;;;;;;;;5054653;28;20444;-85
2022/05/11 04:00:06;;;;;;;26.67;24.83;;;;;;;;;;5054570;28;20476;-85
2022/05/11 04:02:33;;;;;;;26.50;24.63;;;;;;;;;;5054356;28;20866;-85
2022/05/11 04:05:01;;;;;;;26.50;24.60;;;;;;;;;;5054535;28;20409;-85
2022/05/11 04:07:28;;;;;;;25.20;23.60;;;;;;;;;;5054442;28;20440;-85
2022/05/11 04:09:56;;;;;;;25.13;23.43;;;;;;;;;;5054475;28;20440;-85
2022/05/11 04:12:27;;;;;;;27.83;25.83;;;;;;;;;;5036200;28;20425;-84
2022/05/11 04:14:54;;;;;;;26.90;24.50;;;;;;;;;;5054183;28;20816;-85
2022/05/11 04:17:21;;;;;;;25.67;24.00;;;;;;;;;;5054526;28;20414;-85
2022/05/11 04:19:49;;;;;;;25.90;24.00;;;;;;;;;;5054154;28;20425;-85
2022/05/11 04:22:16;;;;;;;26.93;25.13;;;;;;;;;;5054243;28;20440;-85
2022/05/11 04:24:43;;;;;;;27.00;25.00;;;;;;;;;;5054095;28;20418;-85
2022/05/11 04:27:11;;;;;;;27.70;25.70;;;;;;;;;;5054150;28;20478;-85
2022/05/11 04:29:40;;;;;;;25.90;24.20;;;;;;;;;;5053850;28;20522;-85
2022/05/11 04:32:10;;;;;;;27.33;25.43;;;;;;;;;;5053700;28;20452;-85
2022/05/11 04:34:40;;;;;;;26.60;24.80;;;;;;;;;;5053873;28;20783;-85
2022/05/11 04:37:09;;;;;;;27.80;26.00;;;;;;;;;;5053454;28;20567;-85
2022/05/11 04:39:36;;;;;;;25.93;23.93;;;;;;;;;;5053743;28;20467;-85
2022/05/11 04:42:04;;;;;;;26.57;24.67;;;;;;;;;;5053662;28;20840;-85
2022/05/11 04:44:31;;;;;;;27.00;25.03;;;;;;;;;;5053376;28;20859;-85
2022/05/11 04:47:00;;;;;;;27.20;25.30;;;;;;;;;;5052198;28;20476;-83
2022/05/11 04:49:28;;;;;;;26.57;24.77;;;;;;;;;;5053360;28;21016;-84
2022/05/11 04:52:00;;;;;;;27.40;25.60;;;;;;;;;;5053607;28;20554;-84
2022/05/11 04:54:27;;;;;;;26.80;24.90;;;;;;;;;;5053623;28;20443;-84
2022/05/11 04:56:55;;;;;;;27.33;25.43;;;;;;;;;;5053805;28;20490;-85
2022/05/11 04:59:22;;;;;;;27.63;25.63;;;;;;;;;;5053181;28;20432;-85
2022/05/11 05:01:51;;;;;;;27.63;25.77;;;;;;;;;;5053013;28;20442;-85
2022/05/11 05:04:20;;;;;;;25.93;24.17;;;;;;;;;;5053035;28;20448;-84
2022/05/11 05:06:48;;;;;;;27.87;25.87;;;;;;;;;;5053058;28;20876;-86
2022/05/11 05:09:15;;;;;;;27.20;25.43;;;;;;;;;;5052918;28;20414;-84
2022/05/11 05:11:43;;;;;;;27.70;25.70;;;;;;;;;;5053272;28;20444;-85
2022/05/11 05:14:11;;;;;;;28.87;26.80;;;;;;;;;;5052960;28;20467;-85
2022/05/11 05:16:39;;;;;;;28.80;26.77;;;;;;;;;;5052950;28;20462;-85
2022/05/11 05:19:06;;;;;;;27.33;25.43;;;;;;;;;;5051531;28;20483;-84
2022/05/11 05:21:35;;;;;;;28.63;26.63;;;;;;;;;;5035320;28;20421;-84
2022/05/11 05:24:03;;;;;;;28.50;26.50;;;;;;;;;;5051894;28;20414;-84
2022/05/11 05:26:30;;;;;;;27.20;25.30;;;;;;;;;;5052388;28;20417;-84
2022/05/11 05:31:42;;;;;;;27.83;25.83;;;;;;;;;;5052822;28;20429;-84
2022/05/11 05:34:10;;;;;;;27.90;26.00;;;;;;;;;;5052912;28;20832;-85
2022/05/11 05:36:39;;;;;;;29.40;27.10;;;;;;;;;;5052867;28;20453;-85
2022/05/11 05:39:07;;;;;;;29.57;27.57;;;;;;;;;;5052924;28;20833;-84
2022/05/11 05:41:35;;;;;;;29.77;27.80;;;;;;;;;;5052801;28;20527;-85
2022/05/11 05:44:04;;;;;;;31.07;28.17;;;;;;;;;;5052975;28;20471;-84
2022/05/11 05:46:31;;;;;;;29.20;27.10;;;;;;;;;;5053137;28;20468;-85
2022/05/11 05:48:58;;;;;;;29.37;27.40;;;;;;;;;;5052818;28;20429;-85
2022/05/11 05:51:26;;;;;;;29.33;27.37;;;;;;;;;;5052634;28;20486;-85
2022/05/11 05:53:57;;;;;;;29.80;27.53;;;;;;;;;;5052538;28;20448;-86
2022/05/11 05:56:24;;;;;;;30.30;28.10;;;;;;;;;;5053183;28;20596;-85
2022/05/11 05:58:55;;;;;;;30.07;27.87;;;;;;;;;;5052781;28;20507;-85
2022/05/11 06:01:22;;;;;;;30.73;27.87;;;;;;;;;;5053169;28;20500;-86
2022/05/11 06:03:49;;;;;;;30.20;28.00;;;;;;;;;;5052973;28;20420;-85
2022/05/11 06:06:18;;;;;;;29.67;27.47;;;;;;;;;;5053130;28;20467;-88
2022/05/11 06:08:45;;;;;;;29.27;27.17;;;;;;;;;;5053667;28;20443;-87
2022/05/11 06:11:14;;;;;;;30.00;28.03;;;;;;;;;;5053813;28;20447;-87
2022/05/11 06:13:45;;;;;;;29.03;26.93;;;;;;;;;;5053429;28;20447;-86
2022/05/11 06:16:14;;;;;;;28.80;26.63;;;;;;;;;;5053301;28;20540;-87
2022/05/11 06:18:42;;;;;;;31.43;29.13;;;;;;;;;;5053363;28;20977;-87
2022/05/11 06:21:10;;;;;;;29.70;27.60;;;;;;;;;;5053284;28;20440;-87
2022/05/11 06:23:37;;;;;;;30.00;27.53;;;;;;;;;;5053015;28;20441;-87
2022/05/11 06:26:05;;;;;;;29.07;27.13;;;;;;;;;;5052991;28;20463;-86
2022/05/11 06:28:34;;;;;;;30.63;28.33;;;;;;;;;;5053401;28;20479;-86
2022/05/11 06:31:01;;;;;;;31.47;29.13;;;;;;;;;;5053257;28;20451;-87
2022/05/11 06:33:32;;;;;;;29.80;27.80;;;;;;;;;;5053403;28;20463;-87
2022/05/11 06:35:59;;;;;;;31.47;29.20;;;;;;;;;;5055185;28;20886;-85
2022/05/11 06:38:27;;;;;;;30.50;28.20;;;;;;;;;;5056820;28;20446;-87
2022/05/11 06:40:54;;;;;;;32.13;29.80;;;;;;;;;;5056394;28;20554;-86
2022/05/11 06:43:21;;;;;;;29.47;27.33;;;;;;;;;;5056410;28;20439;-86
2022/05/11 06:45:50;;;;;;;31.40;29.00;;;;;;;;;;5056395;28;20443;-87
2022/05/11 06:48:17;;;;;;;31.47;29.17;;;;;;;;;;5056379;28;20452;-87
2022/05/11 06:50:45;;;;;;;29.87;27.80;;;;;;;;;;5055902;28;20483;-86
2022/05/11 06:53:13;;;;;;;29.60;27.50;;;;;;;;;;5056222;28;20459;-87
2022/05/11 07:01:12;;;;;;;28.83;26.83;;;;;;;;;;5056314;28;20461;-87
2022/05/11 07:03:40;;;;;;;28.67;26.77;;;;;;;;;;5055938;28;20471;-88
2022/05/11 07:06:07;;;;;;;30.43;28.13;;;;;;;;;;5038886;28;20438;-88
2022/05/11 07:08:35;;;;;;;28.83;26.80;;;;;;;;;;5056217;28;20461;-86
2022/05/11 07:13:47;;;;;;;28.03;26.13;;;;;;;;;;5056379;28;20469;-94
2022/05/11 07:16:18;;;;;;;28.27;26.40;;;;;;;;;;5056691;28;20483;-87
2022/05/11 07:18:49;;;;;;;28.00;26.10;;;;;;;;;;5055277;28;20454;-87
2022/05/11 07:21:17;;;;;;;28.33;26.43;;;;;;;;;;5056428;28;20431;-87
2022/05/11 07:23:44;;;;;;;24.50;23.00;;;;;;;;;;5056413;28;20428;-87
2022/05/11 07:26:11;;;;;;;26.73;24.80;;;;;;;;;;5055492;28;20435;-87
2022/05/11 07:28:40;;;;;;;25.57;23.97;;;;;;;;;;5055772;28;20435;-86
2022/05/11 07:31:08;;;;;;;24.40;22.90;;;;;;;;;;5055094;28;20943;-85
2022/05/11 07:33:37;;;;;;;23.33;21.90;;;;;;;;;;5055175;28;20448;-85
2022/05/11 07:36:04;;;;;;;25.50;24.00;;;;;;;;;;5055858;28;20443;-85
2022/05/11 07:38:34;;;;;;;26.40;24.80;;;;;;;;;;5054852;28;20905;-85
2022/05/11 07:41:01;;;;;;;24.70;23.07;;;;;;;;;;5055115;28;20436;-85
2022/05/11 07:43:29;;;;;;;26.10;24.40;;;;;;;;;;5054940;28;20470;-85
2022/05/11 07:45:56;;;;;;;25.97;24.37;;;;;;;;;;5054094;28;20430;-85
2022/05/11 07:48:24;;;;;;;27.33;25.17;;;;;;;;;;5053629;28;20451;-86
2022/05/11 07:50:52;;;;;;;25.10;23.50;;;;;;;;;;5054702;28;20536;-86
2022/05/11 07:53:20;;;;;;;27.67;25.90;;;;;;;;;;5055325;28;20501;-86
2022/05/11 07:59:51;;;;;;;26.33;24.53;;;;;;;;;;5037393;28;20443;-86
2022/05/11 08:01:20;;;;;;;25.50;23.80;;;;;;;;;;5054712;28;20422;-86
2022/05/11 08:03:47;;;;;;;25.93;24.23;;;;;;;;;;5054859;28;20442;-86
2022/05/11 08:06:16;;;;;;;26.10;24.20;;;;;;;;;;5054730;28;20465;-86
2022/05/11 08:08:43;;;;;;;25.43;23.73;;;;;;;;;;5054816;28;20463;-86
2022/05/11 08:11:11;;;;;;;25.13;23.47;;;;;;;;;;5054825;28;20446;-86
2022/05/11 08:13:38;;;;;;;26.13;24.43;;;;;;;;;;5055059;28;20409;-86
2022/05/11 08:16:06;;;;;;;25.00;23.50;;;;;;;;;;5053185;28;20448;-86
2022/05/11 08:18:33;;;;;;;27.30;25.60;;;;;;;;;;5054334;28;20417;-86
2022/05/11 08:21:01;;;;;;;25.70;24.10;;;;;;;;;;5053350;28;20497;-86
2022/05/11 08:23:31;;;;;;;27.27;25.57;;;;;;;;;;5054236;28;20991;-86
2022/05/11 08:25:58;;;;;;;27.93;26.03;;;;;;;;;;5054505;28;20406;-86
2022/05/11 08:28:27;;;;;;;25.90;24.30;;;;;;;;;;5054387;28;20450;-86
2022/05/11 08:33:40;;;;;;;26.67;24.97;;;;;;;;;;5054127;28;20545;-85
2022/05/11 08:36:09;;;;;;;28.87;26.77;;;;;;;;;;5054015;28;20417;-86
2022/05/11 08:38:39;;;;;;;27.87;26.17;;;;;;;;;;5054085;28;20451;-86
2022/05/11 08:41:10;;;;;;;24.70;23.20;;;;;;;;;;5054349;28;20948;-87
2022/05/11 08:43:38;;;;;;;25.80;24.30;;;;;;;;;;5053847;28;20901;-85
2022/05/11 08:46:10;;;;;;;30.07;27.97;;;;;;;;;;5053627;28;20435;-85
2022/05/11 08:48:40;;;;;;;26.80;25.10;;;;;;;;;;5053337;28;20785;-84
2022/05/11 08:51:10;;;;;;;27.77;25.87;;;;;;;;;;5052752;28;20486;-83
2022/05/11 08:53:41;;;;;;;26.23;24.60;;;;;;;;;;5052531;28;20423;-79
2022/05/11 08:56:13;;;;;;;28.43;26.63;;;;;;;;;;5052960;28;20489;-80
2022/05/11 08:58:48;;;;;;;27.10;25.43;;;;;;;;;;5051856;28;20456;-80
2022/05/11 09:01:18;;;;;;;26.17;24.47;;;;;;;;;;5052791;28;20467;-80
2022/05/11 09:03:46;;;;;;;25.97;24.40;;;;;;;;;;5052838;28;20439;-79
2022/05/11 09:06:18;;;;;;;26.87;25.17;;;;;;;;;;5052595;28;20446;-80
2022/05/11 09:08:47;;;;;;;27.63;25.90;;;;;;;;;;5052416;28;20417;-82
2022/05/11 09:11:17;;;;;;;24.73;23.33;;;;;;;;;;5053005;28;20422;-81
2022/05/11 09:13:44;;;;;;;27.80;26.07;;;;;;;;;;5052831;28;20446;-79
2022/05/11 09:16:20;;;;;;;27.20;25.30;;;;;;;;;;5052942;28;20449;-83
2022/05/11 09:18:47;;;;;;;25.57;24.00;;;;;;;;;;5052912;28;20424;-83
2022/05/11 09:21:26;;;;;;;27.23;25.53;;;;;;;;;;5035211;28;20416;-81
2022/05/11 09:24:04;;;;;;;25.93;24.33;;;;;;;;;;5050271;28;20904;-81
2022/05/11 09:26:32;;;;;;;26.33;24.40;;;;;;;;;;5052711;28;20421;-83
2022/05/11 09:29:13;;;;;;;26.87;25.07;;;;;;;;;;5052390;28;20900;-83
2022/05/11 09:31:40;;;;;;;25.30;23.80;;;;;;;;;;5052817;28;20471;-86
2022/05/11 09:34:08;;;;;;;28.60;26.53;;;;;;;;;;5053505;28;20410;-87
2022/05/11 09:36:37;;;;;;;26.80;25.10;;;;;;;;;;5053589;28;20769;-86
2022/05/11 09:39:13;;;;;;;24.17;22.83;;;;;;;;;;5052365;28;20859;-87
2022/05/11 09:41:41;;;;;;;26.70;25.00;;;;;;;;;;5053170;28;21014;-87
2022/05/11 09:44:19;;;;;;;27.37;25.57;;;;;;;;;;5053609;28;20459;-87
2022/05/11 09:46:46;;;;;;;26.50;24.73;;;;;;;;;;5053343;28;20517;-87
2022/05/11 09:49:26;;;;;;;25.30;23.80;;;;;;;;;;5035662;28;20450;-87
2022/05/11 09:51:55;;;;;;;24.70;23.20;;;;;;;;;;5053428;28;20462;-86
2022/05/11 09:54:38;;;;;;;24.30;22.70;;;;;;;;;;5053487;28;20418;-87
2022/05/11 09:57:06;;;;;;;25.47;23.77;;;;;;;;;;5053315;28;20990;-87
2022/05/11 09:59:36;;;;;;;24.50;22.90;;;;;;;;;;5019460;28;20843;-85
2022/05/11 10:02:07;;;;;;;25.13;23.53;;;;;;;;;;5053374;28;20558;-87
2022/05/11 10:04:38;;;;;;;23.93;22.50;;;;;;;;;;5053316;28;20447;-86
2022/05/11 10:07:08;;;;;;;25.43;23.93;;;;;;;;;;5053271;28;20437;-87
2022/05/11 10:09:41;;;;;;;24.83;23.20;;;;;;;;;;5055131;28;20405;-87
2022/05/11 10:12:12;;;;;;;25.30;23.70;;;;;;;;;;5057101;28;20846;-88
2022/05/11 10:23:04;;;;;;;23.67;22.17;;;;;;;;;;5056944;28;20445;-91
2022/05/11 10:25:35;;;;;;;24.63;23.03;;;;;;;;;;5055820;28;20464;-92
2022/05/11 10:28:06;;;;;;;26.17;24.50;;;;;;;;;;5057144;28;20822;-92
2022/05/11 10:30:36;;;;;;;26.00;24.20;;;;;;;;;;5057062;28;20454;-91
2022/05/11 10:33:10;;;;;;;24.90;23.40;;;;;;;;;;5057091;28;20462;-92
2022/05/11 10:35:46;;;;;;;27.10;25.30;;;;;;;;;;5056534;28;20798;-92
2022/05/11 10:38:20;;;;;;;25.53;23.90;;;;;;;;;;5057088;28;20461;-91
2022/05/11 10:40:53;;;;;;;25.70;24.00;;;;;;;;;;5057413;28;20459;-90
2022/05/11 10:43:28;;;;;;;24.43;22.93;;;;;;;;;;5039900;28;20487;-90
2022/05/11 10:46:00;;;;;;;24.07;22.60;;;;;;;;;;5057092;28;20417;-90
2022/05/11 10:48:36;;;;;;;23.73;22.33;;;;;;;;;;5056665;28;20430;-91
2022/05/11 10:51:08;;;;;;;25.90;24.30;;;;;;;;;;5056509;28;20995;-91
2022/05/11 10:53:36;;;;;;;24.80;23.43;;;;;;;;;;5056627;28;20818;-91
2022/05/11 10:56:23;;;;;;;26.60;25.00;;;;;;;;;;5056935;28;20794;-91
2022/05/11 10:59:08;;;;;;;25.37;23.90;;;;;;;;;;5057983;28;20896;-91
2022/05/11 11:01:44;;;;;;;27.23;25.53;;;;;;;;;;5018063;28;20501;-90
2022/05/11 11:04:42;;;;;;;26.30;24.53;;;;;;;;;;5058758;28;20420;-90
2022/05/11 11:07:20;;;;;;;25.60;23.93;;;;;;;;;;5056357;28;20421;-90
2022/05/11 11:10:02;;;;;;;25.87;24.17;;;;;;;;;;5056925;28;20430;-91
2022/05/11 11:12:44;;;;;;;25.47;23.60;;;;;;;;;;5053969;28;20455;-91
2022/05/11 11:15:12;;;;;;;24.57;22.87;;;;;;;;;;5039594;28;20503;-91
2022/05/11 11:17:42;;;;;;;24.27;22.43;;;;;;;;;;5056039;28;20462;-89
2022/05/11 11:20:11;;;;;;;26.40;24.03;;;;;;;;;;5055774;28;20463;-91
2022/05/11 11:22:57;;;;;;;24.27;22.77;;;;;;;;;;5055937;28;20444;-92
2022/05/11 11:25:24;;;;;;;25.27;23.57;;;;;;;;;;5055987;28;20986;-91
2022/05/11 11:28:02;;;;;;;25.33;23.37;;;;;;;;;;5055911;28;20487;-92
2022/05/11 11:30:30;;;;;;;24.10;22.70;;;;;;;;;;5056284;28;20786;-92
2022/05/11 11:33:12;;;;;;;23.73;22.10;;;;;;;;;;5055785;28;20455;-91
2022/05/11 11:35:43;;;;;;;24.03;22.63;;;;;;;;;;5055472;28;20922;-92
2022/05/11 11:38:23;;;;;;;24.20;22.80;;;;;;;;;;5055634;28;20987;-91
2022/05/11 11:41:05;;;;;;;24.07;22.47;;;;;;;;;;5054588;28;20808;-91
2022/05/11 11:43:43;;;;;;;24.17;22.60;;;;;;;;;;5055383;28;20418;-90
2022/05/11 11:46:11;;;;;;;25.50;23.80;;;;;;;;;;5055405;28;20440;-89
2022/05/11 11:48:41;;;;;;;23.33;21.90;;;;;;;;;;5054518;28;20427;-88
2022/05/11 11:51:14;;;;;;;24.10;22.70;;;;;;;;;;5050574;28;20479;-90
2022/05/11 11:53:43;;;;;;;23.50;22.07;;;;;;;;;;5051202;28;20418;-90
2022/05/11 11:56:29;;;;;;;24.10;22.60;;;;;;;;;;5035591;28;20443;-90
2022/05/11 11:59:04;;;;;;;25.60;24.00;;;;;;;;;;5035319;28;20490;-90
2022/05/11 12:01:33;;;;;;;24.37;21.77;;;;;;;;;;5035250;28;20473;-90
2022/05/11 12:04:02;;;;;;;25.03;23.53;;;;;;;;;;5035241;28;20415;-90
2022/05/11 12:15:03;;;;;;;25.23;23.73;;;;;;;;;;5034782;28;20439;-90
2022/05/11 12:17:33;;;;;;;25.27;23.80;;;;;;;;;;5033638;28;20507;-89
2022/05/11 12:20:04;;;;;;;25.43;23.90;;;;;;;;;;5034824;28;20451;-89
2022/05/11 12:22:33;;;;;;;24.20;22.80;;;;;;;;;;5035001;28;20972;-90
2022/05/11 12:25:03;;;;;;;24.13;22.63;;;;;;;;;;5034897;28;20411;-90
2022/05/11 12:27:33;;;;;;;26.03;24.43;;;;;;;;;;5034924;28;20423;-90
2022/05/11 12:30:02;;;;;;;25.27;23.53;;;;;;;;;;5034625;28;20456;-90
2022/05/11 12:32:30;;;;;;;23.70;22.10;;;;;;;;;;5035039;28;20503;-90
2022/05/11 12:34:58;;;;;;;24.90;23.40;;;;;;;;;;5034529;28;20418;-90
2022/05/11 12:37:27;;;;;;;25.17;23.27;;;;;;;;;;5034373;28;20426;-90
2022/05/11 12:39:57;;;;;;;25.00;23.30;;;;;;;;;;5034772;28;20473;-90
2022/05/11 12:42:29;;;;;;;25.23;23.63;;;;;;;;;;5034767;28;20411;-90
2022/05/11 12:44:57;;;;;;;24.43;23.03;;;;;;;;;;5034910;28;20410;-90
2022/05/11 12:47:26;;;;;;;25.07;23.57;;;;;;;;;;5033395;28;20422;-90
2022/05/11 12:49:53;;;;;;;25.40;23.90;;;;;;;;;;5034222;28;20489;-90
2022/05/11 12:52:21;;;;;;;25.83;23.90;;;;;;;;;;5033984;28;20964;-90
2022/05/11 12:55:01;;;;;;;24.23;22.83;;;;;;;;;;5034275;28;20450;-90
2022/05/11 12:57:36;;;;;;;23.97;22.57;;;;;;;;;;5034076;28;20423;-90
2022/05/11 13:00:11;;;;;;;24.40;22.97;;;;;;;;;;5035014;28;20436;-91
2022/05/11 13:02:40;;;;;;;24.13;22.40;;;;;;;;;;5033618;28;20443;-91
2022/05/11 13:05:09;;;;;;;25.23;23.83;;;;;;;;;;5034158;28;20426;-91
2022/05/11 13:07:41;;;;;;;23.77;21.73;;;;;;;;;;5034465;28;20414;-91
2022/05/11 13:10:15;;;;;;;23.93;22.53;;;;;;;;;;5033955;28;20450;-91
2022/05/11 13:12:42;;;;;;;24.23;22.83;;;;;;;;;;5034276;28;20436;-92
2022/05/11 13:15:10;;;;;;;24.43;23.03;;;;;;;;;;5034072;28;20816;-90
2022/05/11 13:17:39;;;;;;;25.87;24.37;;;;;;;;;;5034150;28;20419;-90
2022/05/11 13:20:08;;;;;;;24.27;22.87;;;;;;;;;;5033488;28;20423;-91
2022/05/11 13:22:36;;;;;;;26.27;24.67;;;;;;;;;;5034633;28;20415;-87
2022/05/11 13:25:04;;;;;;;24.60;23.20;;;;;;;;;;5037721;28;20439;-88
2022/05/11 13:27:36;;;;;;;25.30;23.70;;;;;;;;;;5033456;28;20407;-88
2022/05/11 13:30:24;;;;;;;25.77;24.17;;;;;;;;;;5033837;28;20425;-90
2022/05/11 13:32:53;;;;;;;24.80;23.40;;;;;;;;;;5028077;28;20431;-89
2022/05/11 13:35:25;;;;;;;26.13;24.17;;;;;;;;;;5033637;28;20449;-94
2022/05/11 13:38:01;;;;;;;26.67;24.53;;;;;;;;;;5030860;28;20462;-87
2022/05/11 13:40:32;;;;;;;25.97;24.37;;;;;;;;;;5033993;28;21126;-91
2022/05/11 13:43:02;;;;;;;23.93;22.53;;;;;;;;;;5034205;28;20415;-89
2022/05/11 13:45:29;;;;;;;26.17;24.37;;;;;;;;;;5036639;28;20450;-91
2022/05/11 13:48:11;;;;;;;25.00;23.40;;;;;;;;;;5037559;28;20912;-90
2022/05/11 13:50:40;;;;;;;26.57;24.87;;;;;;;;;;5037136;28;20967;-88
2022/05/11 13:53:09;;;;;;;26.30;24.70;;;;;;;;;;5037344;28;20483;-91
2022/05/11 13:55:37;;;;;;;25.50;24.07;;;;;;;;;;5037663;28;20454;-95
2022/05/11 13:58:26;;;;;;;26.37;24.23;;;;;;;;;;5037887;28;20458;-96
2022/05/11 14:00:55;;;;;;;24.90;23.30;;;;;;;;;;5037344;28;20538;-87
2022/05/11 14:03:27;;;;;;;24.57;23.23;;;;;;;;;;5020113;28;20439;-94
2022/05/11 14:05:55;;;;;;;24.53;23.10;;;;;;;;;;5037254;28;20422;-86
2022/05/11 14:08:22;;;;;;;24.20;22.87;;;;;;;;;;5019456;28;20423;-86
2022/05/11 14:10:51;;;;;;;25.70;24.10;;;;;;;;;;5037143;28;20514;-86
2022/05/11 14:13:19;;;;;;;24.40;23.00;;;;;;;;;;5036951;28;20452;-86
2022/05/11 14:15:48;;;;;;;25.10;23.70;;;;;;;;;;5019352;28;20481;-87
2022/05/11 14:18:19;;;;;;;25.23;23.53;;;;;;;;;;5037083;28;20501;-89
2022/05/11 14:20:46;;;;;;;24.00;22.63;;;;;;;;;;5037128;28;20538;-91
2022/05/11 14:23:14;;;;;;;23.40;22.10;;;;;;;;;;5037034;28;20439;-88
2022/05/11 14:25:41;;;;;;;24.50;23.10;;;;;;;;;;5037287;28;20439;-89
2022/05/11 14:28:09;;;;;;;24.53;23.13;;;;;;;;;;5037441;28;20426;-90
2022/05/11 14:30:38;;;;;;;24.63;22.80;;;;;;;;;;5037077;28;20417;-86
2022/05/11 14:33:07;;;;;;;23.70;22.40;;;;;;;;;;5037257;28;20444;-91
2022/05/11 14:35:34;;;;;;;24.03;22.43;;;;;;;;;;5038473;28;20407;-96
2022/05/11 14:38:02;;;;;;;24.10;22.70;;;;;;;;;;5021428;28;20437;-96
2022/05/11 14:40:30;;;;;;;22.50;21.20;;;;;;;;;;5037368;28;20436;-94
2022/05/11 14:42:57;;;;;;;23.67;22.37;;;;;;;;;;5036931;28;20422;-87
2022/05/11 14:45:25;;;;;;;24.63;23.13;;;;;;;;;;5036305;28;20942;-88
2022/05/11 14:47:57;;;;;;;23.50;22.10;;;;;;;;;;5036905;28;20452;-89
2022/05/11 14:50:27;;;;;;;24.07;22.77;;;;;;;;;;5036394;28;20454;-88
2022/05/11 14:52:56;;;;;;;24.43;23.07;;;;;;;;;;5037210;28;20444;-90
2022/05/11 14:55:24;;;;;;;23.93;22.57;;;;;;;;;;5051617;28;20417;-90
2022/05/11 15:03:23;;;;;;;25.60;24.20;;;;;;;;;;5056737;28;20439;-92
2022/05/11 15:05:52;;;;;;;25.00;23.60;;;;;;;;;;5056535;28;20401;-91
2022/05/11 15:08:20;;;;;;;24.33;23.03;;;;;;;;;;5055040;28;20911;-84
2022/05/11 15:10:48;;;;;;;24.63;23.23;;;;;;;;;;5056528;28;20451;-88
2022/05/11 15:13:33;;;;;;;23.27;22.07;;;;;;;;;;5056477;28;20837;-90
2022/05/11 15:16:00;;;;;;;24.30;22.90;;;;;;;;;;5056472;28;20414;-89
2022/05/11 15:18:29;;;;;;;24.57;23.17;;;;;;;;;;5056059;28;20520;-89